ENFB/FBU METAR and TAF weather

Enter ICAO airport designator
Station Type Date Time Source
ENFB METAR 2019/06/17 06:20 UTC NOAA

ENFB 170620Z AUTO 13023KT 9999NDV FEW010/// BKN018/// BKN093/// 13/09 Q1010 W///S3


Station Type Date Time Source
ENFB Decoded METAR 2019/06/17 06:20 UTC NOAA

Oslo / Fornebu, Norway (ENFB) 59-54N 010-38E 17M
Jun 17, 2019 - 02:20 AM EDT / 2019.06.17 0620 UTC
Wind: from the SE (130 degrees) at 26 MPH (23 KT):0
Sky conditions: mostly cloudy
Temperature: 55 F (13 C)
Dew Point: 48 F (9 C)
Relative Humidity: 76%
Pressure (altimeter): 29.83 in. Hg (1010 hPa)
ob: ENFB 170620Z AUTO 13023KT 9999NDV FEW010/// BKN018/// BKN093/// 13/09 Q1010 W///S3
cycle: 6

Station Type Date Time Source
ENFB TAF UTC NOAA

Error!

Example: see airport list